Lake Noji, Indiana
Current Conditions -  °F | °C
As of 2:53 PM on Monday 24 Nov 2014 (Local Time) from KHUF Reporting Station
Light Snow Light Snow  
Wind Chill: 28°   Ceiling: 3100
Heat Index: 39°   Visibility: 9mi
Dew Point: 29°   Wind: 24mph
Humidity: 67%   Direction: 240°WSW
Pressure: 29.69"   Gusts: 32mph
Location:  39.3587°N, 87.4056°W
Report Text: KHUF 241953Z 24021G28KT 9SM -SN OVC031 04/M02 A2969 RMK AO2 PK WND 26034/1929 RAE1858B14E33SNB33 SLP054 P0000 T00391017
Loading
Personal Weather Stations






























Interactive Weather Map New forecast layout! Learn more

10-Day Weather Forecast

Advertisements
Track Severe Weather on mobile